sensor_id;sensor_type;location;lat;lon;timestamp;temperature;humidity
64796;DHT22;51229;51.980;6.722;2022-10-16T00:01:35;9.00;99.90
64796;DHT22;51229;51.980;6.722;2022-10-16T00:04:01;9.00;99.90
64796;DHT22;51229;51.980;6.722;2022-10-16T00:06:29;9.00;99.90
64796;DHT22;51229;51.980;6.722;2022-10-16T00:08:56;8.90;99.90
64796;DHT22;51229;51.980;6.722;2022-10-16T00:11:24;8.90;99.90
64796;DHT22;51229;51.980;6.722;2022-10-16T00:13:54;8.90;99.90
64796;DHT22;51229;51.980;6.722;2022-10-16T00:16:20;8.90;99.90
64796;DHT22;51229;51.980;6.722;2022-10-16T00:18:46;8.90;99.90
64796;DHT22;51229;51.980;6.722;2022-10-16T00:21:17;9.00;99.90
64796;DHT22;51229;51.980;6.722;2022-10-16T00:23:44;8.90;99.90
64796;DHT22;51229;51.980;6.722;2022-10-16T00:26:16;8.90;99.90
64796;DHT22;51229;51.980;6.722;2022-10-16T00:28:42;8.90;99.90
64796;DHT22;51229;51.980;6.722;2022-10-16T00:31:11;8.90;99.90
64796;DHT22;51229;51.980;6.722;2022-10-16T00:33:38;8.80;99.90
64796;DHT22;51229;51.980;6.722;2022-10-16T00:36:05;8.80;99.90
64796;DHT22;51229;51.980;6.722;2022-10-16T00:38:31;8.80;99.90
64796;DHT22;51229;51.980;6.722;2022-10-16T00:40:57;8.80;99.90
64796;DHT22;51229;51.980;6.722;2022-10-16T00:46:17;8.80;99.90
64796;DHT22;51229;51.980;6.722;2022-10-16T00:49:14;8.80;99.90
64796;DHT22;51229;51.980;6.722;2022-10-16T00:51:46;8.80;99.90
64796;DHT22;51229;51.980;6.722;2022-10-16T00:54:21;8.80;99.90
64796;DHT22;51229;51.980;6.722;2022-10-16T00:56:49;8.70;99.90
64796;DHT22;51229;51.980;6.722;2022-10-16T00:59:27;8.70;99.90
64796;DHT22;51229;51.980;6.722;2022-10-16T01:01:54;8.80;99.90
64796;DHT22;51229;51.980;6.722;2022-10-16T01:04:20;8.70;99.90
64796;DHT22;51229;51.980;6.722;2022-10-16T01:06:57;8.70;99.90
64796;DHT22;51229;51.980;6.722;2022-10-16T01:09:37;8.70;99.90
64796;DHT22;51229;51.980;6.722;2022-10-16T01:12:15;8.80;99.90
64796;DHT22;51229;51.980;6.722;2022-10-16T01:14:54;8.80;99.90
64796;DHT22;51229;51.980;6.722;2022-10-16T01:17:28;8.70;99.90
64796;DHT22;51229;51.980;6.722;2022-10-16T01:20:08;8.80;99.90
64796;DHT22;51229;51.980;6.722;2022-10-16T01:22:55;8.80;99.90
64796;DHT22;51229;51.980;6.722;2022-10-16T01:28:27;8.80;99.90
64796;DHT22;51229;51.980;6.722;2022-10-16T01:30:57;8.80;99.90
64796;DHT22;51229;51.980;6.722;2022-10-16T01:33:30;8.70;99.90
64796;DHT22;51229;51.980;6.722;2022-10-16T01:36:03;8.70;99.90
64796;DHT22;51229;51.980;6.722;2022-10-16T01:38:35;8.70;99.90
64796;DHT22;51229;51.980;6.722;2022-10-16T01:41:11;8.70;99.90
64796;DHT22;51229;51.980;6.722;2022-10-16T01:43:50;8.70;99.90
64796;DHT22;51229;51.980;6.722;2022-10-16T01:46:20;8.70;99.90
64796;DHT22;51229;51.980;6.722;2022-10-16T01:48:48;8.60;99.90
64796;DHT22;51229;51.980;6.722;2022-10-16T01:51:15;8.70;99.90
64796;DHT22;51229;51.980;6.722;2022-10-16T01:53:46;8.70;99.90
64796;DHT22;51229;51.980;6.722;2022-10-16T01:56:15;8.70;99.90
64796;DHT22;51229;51.980;6.722;2022-10-16T01:58:45;8.60;99.90
64796;DHT22;51229;51.980;6.722;2022-10-16T02:01:13;8.70;99.90
64796;DHT22;51229;51.980;6.722;2022-10-16T02:03:42;8.70;99.90
64796;DHT22;51229;51.980;6.722;2022-10-16T02:06:08;8.60;99.90
64796;DHT22;51229;51.980;6.722;2022-10-16T02:08:35;8.60;99.90
64796;DHT22;51229;51.980;6.722;2022-10-16T02:11:01;8.70;99.90
64796;DHT22;51229;51.980;6.722;2022-10-16T02:13:48;8.70;99.90
64796;DHT22;51229;51.980;6.722;2022-10-16T02:16:16;8.70;99.90
64796;DHT22;51229;51.980;6.722;2022-10-16T02:18:43;8.70;99.90
64796;DHT22;51229;51.980;6.722;2022-10-16T02:21:40;8.70;99.90
64796;DHT22;51229;51.980;6.722;2022-10-16T02:27:52;8.60;99.90
64796;DHT22;51229;51.980;6.722;2022-10-16T02:29:55;8.70;99.90
64796;DHT22;51229;51.980;6.722;2022-10-16T02:32:30;8.70;99.90
64796;DHT22;51229;51.980;6.722;2022-10-16T02:34:56;8.70;99.90
64796;DHT22;51229;51.980;6.722;2022-10-16T02:37:24;8.70;99.90
64796;DHT22;51229;51.980;6.722;2022-10-16T02:39:50;8.80;99.90
64796;DHT22;51229;51.980;6.722;2022-10-16T02:42:17;8.80;99.90
64796;DHT22;51229;51.980;6.722;2022-10-16T02:44:43;8.80;99.90
64796;DHT22;51229;51.980;6.722;2022-10-16T02:47:09;8.80;99.90
64796;DHT22;51229;51.980;6.722;2022-10-16T02:49:34;8.80;99.90
64796;DHT22;51229;51.980;6.722;2022-10-16T02:52:00;8.80;99.90
64796;DHT22;51229;51.980;6.722;2022-10-16T02:54:26;8.80;99.90
64796;DHT22;51229;51.980;6.722;2022-10-16T02:56:52;8.90;99.90
64796;DHT22;51229;51.980;6.722;2022-10-16T02:59:17;8.80;99.90
64796;DHT22;51229;51.980;6.722;2022-10-16T03:01:43;8.70;99.90
64796;DHT22;51229;51.980;6.722;2022-10-16T03:04:08;8.70;99.90
64796;DHT22;51229;51.980;6.722;2022-10-16T03:06:36;8.80;99.90
64796;DHT22;51229;51.980;6.722;2022-10-16T03:09:01;8.70;99.90
64796;DHT22;51229;51.980;6.722;2022-10-16T03:11:27;8.70;99.90
64796;DHT22;51229;51.980;6.722;2022-10-16T03:13:53;8.70;99.90
64796;DHT22;51229;51.980;6.722;2022-10-16T03:16:19;8.80;99.90
64796;DHT22;51229;51.980;6.722;2022-10-16T03:18:48;8.80;99.90
64796;DHT22;51229;51.980;6.722;2022-10-16T03:21:14;8.80;99.90
64796;DHT22;51229;51.980;6.722;2022-10-16T03:23:40;8.90;99.90
64796;DHT22;51229;51.980;6.722;2022-10-16T03:26:06;8.80;99.90
64796;DHT22;51229;51.980;6.722;2022-10-16T03:28:31;8.80;99.90
64796;DHT22;51229;51.980;6.722;2022-10-16T03:30:57;8.70;99.90
64796;DHT22;51229;51.980;6.722;2022-10-16T03:33:23;8.80;99.90
64796;DHT22;51229;51.980;6.722;2022-10-16T03:35:52;8.80;99.90
64796;DHT22;51229;51.980;6.722;2022-10-16T03:38:19;8.80;99.90
64796;DHT22;51229;51.980;6.722;2022-10-16T03:40:44;8.80;99.90
64796;DHT22;51229;51.980;6.722;2022-10-16T03:43:10;8.80;99.90
64796;DHT22;51229;51.980;6.722;2022-10-16T03:45:36;8.70;99.90
64796;DHT22;51229;51.980;6.722;2022-10-16T03:48:01;8.70;99.90
64796;DHT22;51229;51.980;6.722;2022-10-16T03:50:29;8.70;99.90
64796;DHT22;51229;51.980;6.722;2022-10-16T03:52:55;8.70;99.90
64796;DHT22;51229;51.980;6.722;2022-10-16T03:55:20;8.80;99.90
64796;DHT22;51229;51.980;6.722;2022-10-16T03:57:46;8.90;99.90
64796;DHT22;51229;51.980;6.722;2022-10-16T04:00:12;8.80;99.90
64796;DHT22;51229;51.980;6.722;2022-10-16T04:02:38;8.80;99.90
64796;DHT22;51229;51.980;6.722;2022-10-16T04:05:04;8.80;99.90
64796;DHT22;51229;51.980;6.722;2022-10-16T04:07:30;8.80;99.90
64796;DHT22;51229;51.980;6.722;2022-10-16T04:09:56;8.80;99.90
64796;DHT22;51229;51.980;6.722;2022-10-16T04:12:23;8.80;99.90
64796;DHT22;51229;51.980;6.722;2022-10-16T04:14:48;8.80;99.90
64796;DHT22;51229;51.980;6.722;2022-10-16T04:17:14;8.80;99.90
64796;DHT22;51229;51.980;6.722;2022-10-16T04:19:40;8.80;99.90
64796;DHT22;51229;51.980;6.722;2022-10-16T04:22:05;8.70;99.90
64796;DHT22;51229;51.980;6.722;2022-10-16T04:24:31;8.70;99.90
64796;DHT22;51229;51.980;6.722;2022-10-16T04:26:57;8.80;99.90
64796;DHT22;51229;51.980;6.722;2022-10-16T04:29:22;8.70;99.90
64796;DHT22;51229;51.980;6.722;2022-10-16T04:31:48;8.70;99.90
64796;DHT22;51229;51.980;6.722;2022-10-16T04:34:13;8.80;99.90
64796;DHT22;51229;51.980;6.722;2022-10-16T04:36:39;8.70;99.90
64796;DHT22;51229;51.980;6.722;2022-10-16T04:39:05;8.70;99.90
64796;DHT22;51229;51.980;6.722;2022-10-16T04:41:30;8.80;99.90
64796;DHT22;51229;51.980;6.722;2022-10-16T04:43:56;8.70;99.90
64796;DHT22;51229;51.980;6.722;2022-10-16T04:46:22;8.70;99.90
64796;DHT22;51229;51.980;6.722;2022-10-16T04:48:48;8.70;99.90
64796;DHT22;51229;51.980;6.722;2022-10-16T04:51:13;8.70;99.90
64796;DHT22;51229;51.980;6.722;2022-10-16T04:53:39;8.80;99.90
64796;DHT22;51229;51.980;6.722;2022-10-16T04:56:05;8.70;99.90
64796;DHT22;51229;51.980;6.722;2022-10-16T04:58:30;8.70;99.90
64796;DHT22;51229;51.980;6.722;2022-10-16T05:00:56;8.70;99.90
64796;DHT22;51229;51.980;6.722;2022-10-16T05:03:22;8.80;99.90
64796;DHT22;51229;51.980;6.722;2022-10-16T05:05:48;8.70;99.90
64796;DHT22;51229;51.980;6.722;2022-10-16T05:08:15;8.70;99.90
64796;DHT22;51229;51.980;6.722;2022-10-16T05:10:42;8.70;99.90
64796;DHT22;51229;51.980;6.722;2022-10-16T05:13:08;8.70;99.90
64796;DHT22;51229;51.980;6.722;2022-10-16T05:15:34;8.70;99.90
64796;DHT22;51229;51.980;6.722;2022-10-16T05:18:00;8.60;99.90
64796;DHT22;51229;51.980;6.722;2022-10-16T05:20:26;8.60;99.90
64796;DHT22;51229;51.980;6.722;2022-10-16T05:22:51;8.60;99.90
64796;DHT22;51229;51.980;6.722;2022-10-16T05:25:17;8.60;99.90
64796;DHT22;51229;51.980;6.722;2022-10-16T05:27:46;8.60;99.90
64796;DHT22;51229;51.980;6.722;2022-10-16T05:30:12;8.60;99.90
64796;DHT22;51229;51.980;6.722;2022-10-16T05:32:37;8.50;99.90
64796;DHT22;51229;51.980;6.722;2022-10-16T05:35:03;8.60;99.90
64796;DHT22;51229;51.980;6.722;2022-10-16T05:37:29;8.60;99.90
64796;DHT22;51229;51.980;6.722;2022-10-16T05:39:55;8.60;99.90
64796;DHT22;51229;51.980;6.722;2022-10-16T05:42:20;8.60;99.90
64796;DHT22;51229;51.980;6.722;2022-10-16T05:44:46;8.60;99.90
64796;DHT22;51229;51.980;6.722;2022-10-16T05:47:15;8.60;99.90
64796;DHT22;51229;51.980;6.722;2022-10-16T05:49:40;8.60;99.90
64796;DHT22;51229;51.980;6.722;2022-10-16T05:52:06;8.60;99.90
64796;DHT22;51229;51.980;6.722;2022-10-16T05:54:32;8.50;99.90
64796;DHT22;51229;51.980;6.722;2022-10-16T05:56:57;8.50;99.90
64796;DHT22;51229;51.980;6.722;2022-10-16T05:59:23;8.50;99.90
64796;DHT22;51229;51.980;6.722;2022-10-16T06:01:49;8.60;99.90
64796;DHT22;51229;51.980;6.722;2022-10-16T06:04:14;8.50;99.90
64796;DHT22;51229;51.980;6.722;2022-10-16T06:06:40;8.60;99.90
64796;DHT22;51229;51.980;6.722;2022-10-16T06:09:06;8.50;99.90
64796;DHT22;51229;51.980;6.722;2022-10-16T06:11:33;8.50;99.90
64796;DHT22;51229;51.980;6.722;2022-10-16T06:14:01;8.50;99.90
64796;DHT22;51229;51.980;6.722;2022-10-16T06:16:33;8.50;99.90
64796;DHT22;51229;51.980;6.722;2022-10-16T06:18:59;8.50;99.90
64796;DHT22;51229;51.980;6.722;2022-10-16T06:21:26;8.60;99.90
64796;DHT22;51229;51.980;6.722;2022-10-16T06:23:53;8.50;99.90
64796;DHT22;51229;51.980;6.722;2022-10-16T06:26:22;8.50;99.90
64796;DHT22;51229;51.980;6.722;2022-10-16T06:28:48;8.50;99.90
64796;DHT22;51229;51.980;6.722;2022-10-16T06:31:15;8.50;99.90
64796;DHT22;51229;51.980;6.722;2022-10-16T06:33:41;8.50;99.90
64796;DHT22;51229;51.980;6.722;2022-10-16T06:38:34;8.40;99.90
64796;DHT22;51229;51.980;6.722;2022-10-16T06:41:01;8.50;99.90
64796;DHT22;51229;51.980;6.722;2022-10-16T06:43:29;8.50;99.90
64796;DHT22;51229;51.980;6.722;2022-10-16T06:45:59;8.50;99.90
64796;DHT22;51229;51.980;6.722;2022-10-16T06:48:25;8.40;99.90
64796;DHT22;51229;51.980;6.722;2022-10-16T06:51:17;8.50;99.90
64796;DHT22;51229;51.980;6.722;2022-10-16T06:53:48;8.50;99.90
64796;DHT22;51229;51.980;6.722;2022-10-16T06:56:17;8.50;99.90
64796;DHT22;51229;51.980;6.722;2022-10-16T06:58:43;8.50;99.90
64796;DHT22;51229;51.980;6.722;2022-10-16T07:01:10;8.50;99.90
64796;DHT22;51229;51.980;6.722;2022-10-16T07:03:37;8.50;99.90
64796;DHT22;51229;51.980;6.722;2022-10-16T07:06:05;8.60;99.90
64796;DHT22;51229;51.980;6.722;2022-10-16T07:08:35;8.80;99.90
64796;DHT22;51229;51.980;6.722;2022-10-16T07:11:03;9.40;99.90
64796;DHT22;51229;51.980;6.722;2022-10-16T07:13:29;10.10;99.90
64796;DHT22;51229;51.980;6.722;2022-10-16T07:15:54;10.40;99.90
64796;DHT22;51229;51.980;6.722;2022-10-16T07:18:20;10.90;99.90
64796;DHT22;51229;51.980;6.722;2022-10-16T07:20:46;11.00;99.90
64796;DHT22;51229;51.980;6.722;2022-10-16T07:23:11;11.40;99.90
64796;DHT22;51229;51.980;6.722;2022-10-16T07:25:37;11.70;99.90
64796;DHT22;51229;51.980;6.722;2022-10-16T07:28:03;11.80;99.90
64796;DHT22;51229;51.980;6.722;2022-10-16T07:30:28;11.60;99.90
64796;DHT22;51229;51.980;6.722;2022-10-16T07:32:54;11.90;99.90
64796;DHT22;51229;51.980;6.722;2022-10-16T07:35:20;12.00;99.90
64796;DHT22;51229;51.980;6.722;2022-10-16T07:37:46;12.10;99.90
64796;DHT22;51229;51.980;6.722;2022-10-16T07:40:12;12.30;99.90
64796;DHT22;51229;51.980;6.722;2022-10-16T07:42:37;12.30;99.90
64796;DHT22;51229;51.980;6.722;2022-10-16T07:45:04;12.40;99.90
64796;DHT22;51229;51.980;6.722;2022-10-16T07:47:30;12.80;99.90
64796;DHT22;51229;51.980;6.722;2022-10-16T07:49:56;12.80;99.90
64796;DHT22;51229;51.980;6.722;2022-10-16T07:52:21;13.40;99.90
64796;DHT22;51229;51.980;6.722;2022-10-16T07:54:47;13.10;99.90
64796;DHT22;51229;51.980;6.722;2022-10-16T07:57:12;13.00;99.90
64796;DHT22;51229;51.980;6.722;2022-10-16T07:59:47;12.70;99.90
64796;DHT22;51229;51.980;6.722;2022-10-16T08:02:13;12.10;99.90
64796;DHT22;51229;51.980;6.722;2022-10-16T08:04:38;11.90;99.90
64796;DHT22;51229;51.980;6.722;2022-10-16T08:07:04;12.10;99.90
64796;DHT22;51229;51.980;6.722;2022-10-16T08:09:30;12.10;99.90
64796;DHT22;51229;51.980;6.722;2022-10-16T08:11:55;12.80;99.90
64796;DHT22;51229;51.980;6.722;2022-10-16T08:14:21;13.70;99.90
64796;DHT22;51229;51.980;6.722;2022-10-16T08:16:47;14.30;99.90
64796;DHT22;51229;51.980;6.722;2022-10-16T08:19:12;14.60;99.90
64796;DHT22;51229;51.980;6.722;2022-10-16T08:21:38;14.90;99.90
64796;DHT22;51229;51.980;6.722;2022-10-16T08:24:04;14.50;99.90
64796;DHT22;51229;51.980;6.722;2022-10-16T08:26:30;14.70;99.90
64796;DHT22;51229;51.980;6.722;2022-10-16T08:28:56;14.80;99.90
64796;DHT22;51229;51.980;6.722;2022-10-16T08:31:22;15.50;99.90
64796;DHT22;51229;51.980;6.722;2022-10-16T08:33:48;16.10;99.90
64796;DHT22;51229;51.980;6.722;2022-10-16T08:36:15;16.70;99.90
64796;DHT22;51229;51.980;6.722;2022-10-16T08:38:41;17.00;99.90
64796;DHT22;51229;51.980;6.722;2022-10-16T08:44:07;17.10;99.90
64796;DHT22;51229;51.980;6.722;2022-10-16T08:49:12;15.00;99.90
64796;DHT22;51229;51.980;6.722;2022-10-16T08:51:41;15.60;99.90
64796;DHT22;51229;51.980;6.722;2022-10-16T08:54:26;14.70;99.90
64796;DHT22;51229;51.980;6.722;2022-10-16T08:56:56;14.90;99.90
64796;DHT22;51229;51.980;6.722;2022-10-16T08:59:22;15.00;99.90
64796;DHT22;51229;51.980;6.722;2022-10-16T09:01:50;14.50;99.90
64796;DHT22;51229;51.980;6.722;2022-10-16T09:04:42;14.40;99.90
64796;DHT22;51229;51.980;6.722;2022-10-16T09:07:25;14.90;99.90
64796;DHT22;51229;51.980;6.722;2022-10-16T09:12:55;14.00;99.90
64796;DHT22;51229;51.980;6.722;2022-10-16T09:15:35;14.70;99.90
64796;DHT22;51229;51.980;6.722;2022-10-16T09:18:19;14.90;99.90
64796;DHT22;51229;51.980;6.722;2022-10-16T09:20:53;16.00;99.90
64796;DHT22;51229;51.980;6.722;2022-10-16T09:23:29;16.00;99.90
64796;DHT22;51229;51.980;6.722;2022-10-16T09:25:57;16.40;99.90
64796;DHT22;51229;51.980;6.722;2022-10-16T09:28:24;17.20;99.90
64796;DHT22;51229;51.980;6.722;2022-10-16T09:30:50;17.00;99.90
64796;DHT22;51229;51.980;6.722;2022-10-16T09:33:18;16.00;99.90
64796;DHT22;51229;51.980;6.722;2022-10-16T09:35:45;16.10;99.90
64796;DHT22;51229;51.980;6.722;2022-10-16T09:40:51;17.50;99.90
64796;DHT22;51229;51.980;6.722;2022-10-16T09:43:27;16.90;99.90
64796;DHT22;51229;51.980;6.722;2022-10-16T09:45:58;17.00;99.90
64796;DHT22;51229;51.980;6.722;2022-10-16T09:48:35;17.50;99.90
64796;DHT22;51229;51.980;6.722;2022-10-16T09:51:04;16.80;99.90
64796;DHT22;51229;51.980;6.722;2022-10-16T09:53:44;18.40;99.90
64796;DHT22;51229;51.980;6.722;2022-10-16T09:56:20;17.70;99.90
64796;DHT22;51229;51.980;6.722;2022-10-16T09:58:54;18.90;99.90
64796;DHT22;51229;51.980;6.722;2022-10-16T10:01:21;19.20;99.90
64796;DHT22;51229;51.980;6.722;2022-10-16T10:03:48;19.20;99.90
64796;DHT22;51229;51.980;6.722;2022-10-16T10:06:18;20.70;99.90
64796;DHT22;51229;51.980;6.722;2022-10-16T10:09:04;20.50;99.90
64796;DHT22;51229;51.980;6.722;2022-10-16T10:17:22;21.90;99.90
64796;DHT22;51229;51.980;6.722;2022-10-16T10:20:38;20.10;99.90
64796;DHT22;51229;51.980;6.722;2022-10-16T10:22:45;18.80;99.90
64796;DHT22;51229;51.980;6.722;2022-10-16T10:25:15;20.30;99.90
64796;DHT22;51229;51.980;6.722;2022-10-16T10:36:11;20.10;99.90
64796;DHT22;51229;51.980;6.722;2022-10-16T10:41:40;19.30;99.90
64796;DHT22;51229;51.980;6.722;2022-10-16T10:47:29;18.40;99.90
64796;DHT22;51229;51.980;6.722;2022-10-16T10:50:18;20.10;99.90
64796;DHT22;51229;51.980;6.722;2022-10-16T11:01:12;20.50;99.90
64796;DHT22;51229;51.980;6.722;2022-10-16T11:07:04;21.20;99.90
64796;DHT22;51229;51.980;6.722;2022-10-16T11:09:36;21.10;99.90
64796;DHT22;51229;51.980;6.722;2022-10-16T11:12:21;21.80;99.90
64796;DHT22;51229;51.980;6.722;2022-10-16T11:15:20;22.40;99.90
64796;DHT22;51229;51.980;6.722;2022-10-16T11:20:28;23.80;99.90
64796;DHT22;51229;51.980;6.722;2022-10-16T11:23:00;24.00;99.90
64796;DHT22;51229;51.980;6.722;2022-10-16T11:25:31;22.80;99.90
64796;DHT22;51229;51.980;6.722;2022-10-16T11:28:16;23.20;99.90
64796;DHT22;51229;51.980;6.722;2022-10-16T11:31:02;21.60;99.90
64796;DHT22;51229;51.980;6.722;2022-10-16T11:38:29;22.30;99.90
64796;DHT22;51229;51.980;6.722;2022-10-16T11:41:01;23.20;99.90
64796;DHT22;51229;51.980;6.722;2022-10-16T11:43:34;24.40;99.90
64796;DHT22;51229;51.980;6.722;2022-10-16T11:46:10;25.10;99.80
64796;DHT22;51229;51.980;6.722;2022-10-16T11:48:57;24.90;99.70
64796;DHT22;51229;51.980;6.722;2022-10-16T11:51:38;24.70;99.10
64796;DHT22;51229;51.980;6.722;2022-10-16T11:56:41;22.90;95.80
64796;DHT22;51229;51.980;6.722;2022-10-16T12:07:57;24.30;97.30
64796;DHT22;51229;51.980;6.722;2022-10-16T12:10:28;25.10;94.50
64796;DHT22;51229;51.980;6.722;2022-10-16T12:12:54;25.50;94.30
64796;DHT22;51229;51.980;6.722;2022-10-16T12:15:27;25.20;90.70
64796;DHT22;51229;51.980;6.722;2022-10-16T12:17:54;24.80;91.60
64796;DHT22;51229;51.980;6.722;2022-10-16T12:20:25;22.70;93.00
64796;DHT22;51229;51.980;6.722;2022-10-16T12:23:05;23.50;97.80
64796;DHT22;51229;51.980;6.722;2022-10-16T12:25:36;23.30;97.60
64796;DHT22;51229;51.980;6.722;2022-10-16T12:28:28;22.20;99.30
64796;DHT22;51229;51.980;6.722;2022-10-16T12:30:57;23.40;98.40
64796;DHT22;51229;51.980;6.722;2022-10-16T12:33:34;25.00;93.90
64796;DHT22;51229;51.980;6.722;2022-10-16T12:36:03;25.80;95.10
64796;DHT22;51229;51.980;6.722;2022-10-16T12:38:38;26.70;94.50
64796;DHT22;51229;51.980;6.722;2022-10-16T12:41:10;24.60;85.90
64796;DHT22;51229;51.980;6.722;2022-10-16T12:43:42;24.70;92.70
64796;DHT22;51229;51.980;6.722;2022-10-16T12:48:34;24.20;96.50
64796;DHT22;51229;51.980;6.722;2022-10-16T12:51:11;24.20;94.70
64796;DHT22;51229;51.980;6.722;2022-10-16T12:53:37;23.80;95.90
64796;DHT22;51229;51.980;6.722;2022-10-16T12:56:14;23.20;91.40
64796;DHT22;51229;51.980;6.722;2022-10-16T13:10:20;20.30;99.90
64796;DHT22;51229;51.980;6.722;2022-10-16T13:18:54;20.50;99.20
64796;DHT22;51229;51.980;6.722;2022-10-16T13:21:37;19.80;99.90
64796;DHT22;51229;51.980;6.722;2022-10-16T13:29:30;20.70;99.90
64796;DHT22;51229;51.980;6.722;2022-10-16T13:31:58;20.10;99.90
64796;DHT22;51229;51.980;6.722;2022-10-16T13:34:24;20.00;99.90
64796;DHT22;51229;51.980;6.722;2022-10-16T13:36:52;20.20;99.90
64796;DHT22;51229;51.980;6.722;2022-10-16T13:39:26;19.80;99.90
64796;DHT22;51229;51.980;6.722;2022-10-16T13:42:02;18.70;99.90
64796;DHT22;51229;51.980;6.722;2022-10-16T13:44:34;18.40;99.90
64796;DHT22;51229;51.980;6.722;2022-10-16T13:47:01;18.30;99.90
64796;DHT22;51229;51.980;6.722;2022-10-16T13:49:27;19.30;99.90
64796;DHT22;51229;51.980;6.722;2022-10-16T13:51:58;19.20;99.90
64796;DHT22;51229;51.980;6.722;2022-10-16T13:54:26;19.60;99.90
64796;DHT22;51229;51.980;6.722;2022-10-16T13:56:52;19.80;99.90
64796;DHT22;51229;51.980;6.722;2022-10-16T13:59:27;19.80;99.90
64796;DHT22;51229;51.980;6.722;2022-10-16T14:01:58;19.50;99.90
64796;DHT22;51229;51.980;6.722;2022-10-16T14:04:28;19.40;99.90
64796;DHT22;51229;51.980;6.722;2022-10-16T14:06:55;19.70;99.90
64796;DHT22;51229;51.980;6.722;2022-10-16T14:09:26;19.20;99.90
64796;DHT22;51229;51.980;6.722;2022-10-16T14:12:02;19.20;99.90
64796;DHT22;51229;51.980;6.722;2022-10-16T14:14:35;19.30;99.90
64796;DHT22;51229;51.980;6.722;2022-10-16T14:17:05;19.40;99.90
64796;DHT22;51229;51.980;6.722;2022-10-16T14:19:31;18.60;99.90
64796;DHT22;51229;51.980;6.722;2022-10-16T14:21:58;18.20;99.90
64796;DHT22;51229;51.980;6.722;2022-10-16T14:24:35;18.50;99.90
64796;DHT22;51229;51.980;6.722;2022-10-16T14:27:02;18.20;99.90
64796;DHT22;51229;51.980;6.722;2022-10-16T14:29:29;17.30;99.90
64796;DHT22;51229;51.980;6.722;2022-10-16T14:36:54;18.10;99.90
64796;DHT22;51229;51.980;6.722;2022-10-16T14:39:21;18.10;99.90
64796;DHT22;51229;51.980;6.722;2022-10-16T14:41:50;18.70;99.90
64796;DHT22;51229;51.980;6.722;2022-10-16T14:44:18;17.80;99.90
64796;DHT22;51229;51.980;6.722;2022-10-16T14:46:45;17.90;99.90
64796;DHT22;51229;51.980;6.722;2022-10-16T14:51:37;17.30;99.90
64796;DHT22;51229;51.980;6.722;2022-10-16T14:54:04;17.50;99.90
64796;DHT22;51229;51.980;6.722;2022-10-16T14:56:32;17.80;99.90
64796;DHT22;51229;51.980;6.722;2022-10-16T14:59:00;18.10;99.90
64796;DHT22;51229;51.980;6.722;2022-10-16T15:01:26;18.00;99.90
64796;DHT22;51229;51.980;6.722;2022-10-16T15:03:53;18.00;99.90
64796;DHT22;51229;51.980;6.722;2022-10-16T15:06:20;17.90;99.90
64796;DHT22;51229;51.980;6.722;2022-10-16T15:08:46;17.50;99.90
64796;DHT22;51229;51.980;6.722;2022-10-16T15:11:14;17.60;99.90
64796;DHT22;51229;51.980;6.722;2022-10-16T15:13:41;17.40;99.90
64796;DHT22;51229;51.980;6.722;2022-10-16T15:16:11;17.20;99.90
64796;DHT22;51229;51.980;6.722;2022-10-16T15:18:37;17.10;99.90
64796;DHT22;51229;51.980;6.722;2022-10-16T15:21:02;17.50;99.90
64796;DHT22;51229;51.980;6.722;2022-10-16T15:23:28;17.50;99.90
64796;DHT22;51229;51.980;6.722;2022-10-16T15:25:55;17.60;99.90
64796;DHT22;51229;51.980;6.722;2022-10-16T15:28:22;17.80;99.90
64796;DHT22;51229;51.980;6.722;2022-10-16T15:30:53;17.90;99.90
64796;DHT22;51229;51.980;6.722;2022-10-16T15:33:24;17.70;99.90
64796;DHT22;51229;51.980;6.722;2022-10-16T15:35:53;17.60;99.90
64796;DHT22;51229;51.980;6.722;2022-10-16T15:38:20;17.50;99.90
64796;DHT22;51229;51.980;6.722;2022-10-16T15:40:47;17.40;99.90
64796;DHT22;51229;51.980;6.722;2022-10-16T15:43:13;17.40;99.90
64796;DHT22;51229;51.980;6.722;2022-10-16T15:45:40;17.30;99.90
64796;DHT22;51229;51.980;6.722;2022-10-16T15:48:06;17.40;99.90
64796;DHT22;51229;51.980;6.722;2022-10-16T15:50:32;17.40;99.90
64796;DHT22;51229;51.980;6.722;2022-10-16T15:52:58;17.30;99.90
64796;DHT22;51229;51.980;6.722;2022-10-16T15:55:23;17.30;99.90
64796;DHT22;51229;51.980;6.722;2022-10-16T15:57:49;17.10;99.90
64796;DHT22;51229;51.980;6.722;2022-10-16T16:00:18;17.00;99.90
64796;DHT22;51229;51.980;6.722;2022-10-16T16:02:51;16.90;99.90
64796;DHT22;51229;51.980;6.722;2022-10-16T16:05:18;16.90;99.90
64796;DHT22;51229;51.980;6.722;2022-10-16T16:07:44;16.90;99.90
64796;DHT22;51229;51.980;6.722;2022-10-16T16:10:10;17.00;99.90
64796;DHT22;51229;51.980;6.722;2022-10-16T16:12:36;16.90;99.90
64796;DHT22;51229;51.980;6.722;2022-10-16T16:15:04;16.90;99.90
64796;DHT22;51229;51.980;6.722;2022-10-16T16:17:31;16.90;99.90
64796;DHT22;51229;51.980;6.722;2022-10-16T16:19:57;16.80;99.90
64796;DHT22;51229;51.980;6.722;2022-10-16T16:22:23;16.80;99.90
64796;DHT22;51229;51.980;6.722;2022-10-16T16:24:49;16.60;99.90
64796;DHT22;51229;51.980;6.722;2022-10-16T16:27:14;16.50;99.90
64796;DHT22;51229;51.980;6.722;2022-10-16T16:29:40;16.50;99.90
64796;DHT22;51229;51.980;6.722;2022-10-16T16:32:06;16.50;99.90
64796;DHT22;51229;51.980;6.722;2022-10-16T16:34:32;16.50;99.90
64796;DHT22;51229;51.980;6.722;2022-10-16T16:36:57;16.40;99.90
64796;DHT22;51229;51.980;6.722;2022-10-16T16:39:24;16.40;99.90
64796;DHT22;51229;51.980;6.722;2022-10-16T16:41:50;16.30;99.90
64796;DHT22;51229;51.980;6.722;2022-10-16T16:44:16;16.30;99.90
64796;DHT22;51229;51.980;6.722;2022-10-16T16:46:44;16.20;99.90
64796;DHT22;51229;51.980;6.722;2022-10-16T16:49:11;16.10;99.90
64796;DHT22;51229;51.980;6.722;2022-10-16T16:51:37;16.00;99.90
64796;DHT22;51229;51.980;6.722;2022-10-16T16:54:03;16.00;99.90
64796;DHT22;51229;51.980;6.722;2022-10-16T16:56:29;16.00;99.90
64796;DHT22;51229;51.980;6.722;2022-10-16T16:58:56;15.90;99.90
64796;DHT22;51229;51.980;6.722;2022-10-16T17:01:24;15.90;99.90
64796;DHT22;51229;51.980;6.722;2022-10-16T17:03:51;15.80;99.90
64796;DHT22;51229;51.980;6.722;2022-10-16T17:06:19;15.80;99.90
64796;DHT22;51229;51.980;6.722;2022-10-16T17:08:45;15.70;99.90
64796;DHT22;51229;51.980;6.722;2022-10-16T17:11:14;15.60;99.90
64796;DHT22;51229;51.980;6.722;2022-10-16T17:13:39;15.60;99.90
64796;DHT22;51229;51.980;6.722;2022-10-16T17:16:06;15.60;99.90
64796;DHT22;51229;51.980;6.722;2022-10-16T17:18:33;15.50;99.90
64796;DHT22;51229;51.980;6.722;2022-10-16T17:20:59;15.50;99.90
64796;DHT22;51229;51.980;6.722;2022-10-16T17:23:25;15.40;99.90
64796;DHT22;51229;51.980;6.722;2022-10-16T17:25:51;15.40;99.90
64796;DHT22;51229;51.980;6.722;2022-10-16T17:28:17;15.40;99.90
64796;DHT22;51229;51.980;6.722;2022-10-16T17:30:43;15.30;99.90
64796;DHT22;51229;51.980;6.722;2022-10-16T17:33:10;15.30;99.90
64796;DHT22;51229;51.980;6.722;2022-10-16T17:35:41;15.20;99.90